This is the latest recevied weather packets stored in our database for station/object FHDOHA-13. If no packets are shown the sender has not sent any weather packets the latest 10 day(s).
| Time | Temp. | Humidity | Pressure | Rain* | Wind** | Luminosity | Snow |
|---|---|---|---|---|---|---|---|
| 1777065371 | 8.33° C | 79% | 1019.4 hPa | 0 mm | - | - | - |
| 1777064471 | 8.33° C | 75% | 1019.4 hPa | 0 mm | - | - | - |
| 1777063571 | 9.44° C | 73% | 1019.3 hPa | 0 mm | - | - | - |
| 1777062671 | 10° C | 72% | 1019.2 hPa | 0 mm | - | - | - |
| 1777061771 | 10° C | 72% | 1019.2 hPa | 0 mm | - | - | - |
| 1777060871 | 10.56° C | 71% | 1019.2 hPa | 0 mm | - | - | - |
| 1777059971 | 11.11° C | 69% | 1019.1 hPa | 0 mm | - | - | - |
| 1777059071 | 11.11° C | 68% | 1019.1 hPa | 0 mm | - | - | - |
| 1777058171 | 11.67° C | 67% | 1019 hPa | 0 mm | - | - | - |
| 1777057271 | 12.22° C | 64% | 1019 hPa | 0 mm | - | - | - |
| 1777056371 | 12.78° C | 62% | 1018.9 hPa | 0 mm | - | - | - |
| 1777055471 | 13.33° C | 60% | 1017.8 hPa | 0 mm | - | - | - |
| 1777054571 | 15° C | 57% | 1017.7 hPa | 0 mm | - | - | - |
| 1777053671 | 16.67° C | 52% | 1017.5 hPa | 0 mm | - | - | - |
| 1777052771 | 16.11° C | 56% | 1018.6 hPa | 0 mm | - | - | - |
| 1777051871 | 15° C | 58% | 1018.7 hPa | 0 mm | - | - | - |
| 1777050971 | 15° C | 57% | 1018.7 hPa | 0 mm | - | - | - |
| 1777050071 | 15° C | 56% | 1018.7 hPa | 0 mm | - | - | - |
| 1777049171 | 15.56° C | 56% | 1018.6 hPa | 0 mm | - | - | - |
| 1777048271 | 15.56° C | 55% | 1018.6 hPa | 0 mm | - | - | - |
| 1777047371 | 15.56° C | 56% | 1018.6 hPa | 0 mm | - | - | - |
| 1777046471 | 15.56° C | 56% | 1018.6 hPa | 0 mm | - | - | - |
| 1777045571 | 15.56° C | 55% | 1018.6 hPa | 0 mm | - | - | - |
| 1777044671 | 15.56° C | 56% | 1018.6 hPa | 0 mm | - | - | - |
| 1777043771 | 15.56° C | 57% | 1018.6 hPa | 0 mm | - | - | - |
* Rain latest hour (hover to see other rain measurements)
** Current wind speed in m/s (hover to see current wind gust speed)